Time;durP1;ratioP1;P1;durP2;ratioP2;P2;SDS_P1;SDS_P2;PMS_P1;PMS_P2;Temp;Humidity;BMP_temperature;BMP_pressure;BME280_temperature;BME280_humidity;BME280_pressure;Samples;Min_cycle;Max_cycle;Signal;HPM_P1;HPM_P2
2023/06/21 00:00:36;;;;;;;;;7.00;7.00;;;;;25.17;56.70;100761.28;2087718;28;46393;-57
2023/06/21 00:01:38;;;;;;;;;6.67;6.00;;;;;25.16;56.28;100758.72;2087661;28;46100;-56
2023/06/21 00:02:39;;;;;;;;;8.00;7.00;;;;;25.15;56.65;100760.53;2087019;28;47075;-58
2023/06/21 00:03:40;;;;;;;;;7.00;7.00;;;;;25.15;56.43;100767.81;2095899;28;45625;-56
2023/06/21 00:04:40;;;;;;;;;8.25;8.25;;;;;25.14;56.44;100766.97;2096333;28;46390;-57
2023/06/21 00:05:40;;;;;;;;;8.33;7.33;;;;;25.13;56.27;100769.78;2080431;28;46129;-56
2023/06/21 00:06:46;;;;;;;;;5.50;5.50;;;;;25.11;56.30;100766.34;2086369;28;46426;-57
2023/06/21 00:07:47;;;;;;;;;8.00;5.60;;;;;25.11;56.11;100769.06;2087985;28;46250;-57
2023/06/21 00:08:48;;;;;;;;;7.40;7.40;;;;;25.07;56.36;100763.03;2087941;28;45693;-56
2023/06/21 00:09:48;;;;;;;;;6.00;6.00;;;;;25.09;56.28;100768.34;2088203;28;45656;-57
2023/06/21 00:10:49;;;;;;;;;7.00;7.00;;;;;25.07;56.67;100771.19;2088000;28;45403;-56
2023/06/21 00:11:49;;;;;;;;;7.75;6.75;;;;;25.06;56.09;100764.03;2087074;28;47171;-55
2023/06/21 00:12:51;;;;;;;;;4.50;4.50;;;;;25.06;56.71;100766.75;2087307;28;45874;-58
2023/06/21 00:13:54;;;;;;;;;4.60;4.60;;;;;25.04;56.31;100759.72;2087460;28;46026;-56
2023/06/21 00:14:54;;;;;;;;;4.50;4.50;;;;;25.03;56.43;100764.28;2087907;28;46038;-57
2023/06/21 00:15:55;;;;;;;;;6.50;6.00;;;;;25.02;55.98;100765.25;2088039;28;45372;-57
2023/06/21 00:16:55;;;;;;;;;9.75;9.00;;;;;25.00;56.62;100756.31;2087919;28;46389;-56
2023/06/21 00:17:56;;;;;;;;;8.00;6.25;;;;;25.00;56.04;100759.03;2087840;28;47054;-55
2023/06/21 00:18:57;;;;;;;;;6.20;5.00;;;;;24.99;56.56;100760.03;2087492;28;45615;-55
2023/06/21 00:19:58;;;;;;;;;4.20;4.20;;;;;24.98;56.22;100758.31;2087521;28;45678;-55
2023/06/21 00:20:59;;;;;;;;;5.33;5.33;;;;;24.97;56.58;100763.88;2087626;28;46172;-55
2023/06/21 00:22:00;;;;;;;;;1.75;1.75;;;;;24.95;56.59;100767.56;2087267;28;46287;-56
2023/06/21 00:23:00;;;;;;;;;6.00;6.00;;;;;24.95;56.24;100764.00;2086794;28;46513;-57
2023/06/21 00:24:02;;;;;;;;;5.50;5.50;;;;;24.94;56.70;100763.13;2086575;28;45627;-57
2023/06/21 00:25:03;;;;;;;;;6.60;6.20;;;;;24.94;56.46;100768.56;2087135;28;46321;-57
2023/06/21 00:26:04;;;;;;;;;5.60;5.00;;;;;24.92;56.68;100769.69;2087265;28;47485;-57
2023/06/21 00:27:04;;;;;;;;;4.50;4.50;;;;;24.93;56.45;100765.97;2087413;28;46570;-56
2023/06/21 00:28:05;;;;;;;;;7.00;7.00;;;;;24.90;56.94;100760.75;2088876;28;46981;-57
2023/06/21 00:29:05;;;;;;;;;6.00;6.00;;;;;24.89;56.40;100762.63;2087606;28;46889;-56
2023/06/21 00:30:06;;;;;;;;;6.50;4.00;;;;;24.88;56.58;100763.59;2087335;28;46464;-56
2023/06/21 00:31:10;;;;;;;;;11.60;9.80;;;;;24.87;56.59;100761.03;2087281;28;46088;-54
2023/06/21 00:32:10;;;;;;;;;6.80;6.20;;;;;24.86;56.70;100759.31;2081559;28;46308;-56
2023/06/21 00:33:11;;;;;;;;;5.00;5.00;;;;;24.85;56.89;100760.28;2087356;28;46315;-58
2023/06/21 00:34:11;;;;;;;;;5.00;4.25;;;;;24.84;56.90;100764.00;2085377;28;46137;-56
2023/06/21 00:35:11;;;;;;;;;3.50;3.50;;;;;24.83;56.82;100765.84;2086928;28;45896;-56
2023/06/21 00:36:12;;;;;;;;;7.00;7.00;;;;;24.82;56.69;100763.25;2086974;28;45459;-57
2023/06/21 00:37:16;;;;;;;;;5.00;5.00;;;;;24.81;56.92;100764.25;2086829;28;45576;-56
2023/06/21 00:38:16;;;;;;;;;7.00;6.00;;;;;24.79;56.42;100769.81;2086886;28;45680;-56
2023/06/21 00:39:17;;;;;;;;;4.00;4.00;;;;;24.79;57.13;100772.53;2086196;28;46336;-55
2023/06/21 00:40:18;;;;;;;;;4.67;4.67;;;;;24.78;57.17;100767.22;2086044;28;46209;-58
2023/06/21 00:41:19;;;;;;;;;4.50;4.50;;;;;24.78;57.07;100772.66;2087388;28;45759;-57
2023/06/21 00:42:19;;;;;;;;;5.00;5.00;;;;;24.77;57.37;100771.75;2079219;28;45151;-57
2023/06/21 00:43:20;;;;;;;;;4.33;4.33;;;;;24.76;56.77;100769.16;2083618;28;46231;-56
2023/06/21 00:44:20;;;;;;;;;7.00;6.00;;;;;24.74;57.04;100772.00;2095146;28;45589;-56
2023/06/21 00:45:21;;;;;;;;;6.00;6.00;;;;;24.73;57.09;100762.13;2102687;28;45957;-56
2023/06/21 00:46:21;;;;;;;;;3.00;3.00;;;;;24.72;56.90;100771.28;2102647;28;45828;-56
2023/06/21 00:47:22;;;;;;;;;5.00;5.00;;;;;24.70;57.03;100762.38;2102456;28;47213;-55
2023/06/21 00:48:22;;;;;;;;;3.33;3.33;;;;;24.70;57.18;100764.25;2087625;28;45884;-55
2023/06/21 00:49:23;;;;;;;;;4.67;4.00;;;;;24.70;57.42;100772.38;2087362;28;46369;-56
2023/06/21 00:50:25;;;;;;;;;7.00;4.33;;;;;24.69;57.08;100771.53;2087398;28;46417;-54
2023/06/21 00:51:26;;;;;;;;;4.50;4.50;;;;;24.68;57.53;100771.66;2087154;28;45825;-56
2023/06/21 00:52:26;;;;;;;;;5.25;5.25;;;;;24.67;57.49;100768.06;2087153;28;45328;-55
2023/06/21 00:53:29;;;;;;;;;5.00;5.00;;;;;24.67;57.25;100772.63;2087268;28;45536;-56
2023/06/21 00:54:32;;;;;;;;;4.00;4.00;;;;;24.67;57.18;100778.06;2087044;28;46074;-55
2023/06/21 00:55:33;;;;;;;;;6.60;5.60;;;;;24.66;57.00;100782.63;2087499;28;46428;-58
2023/06/21 00:56:33;;;;;;;;;4.00;4.00;;;;;24.63;57.30;100775.56;2087390;28;46391;-57
2023/06/21 00:57:35;;;;;;;;;3.33;3.33;;;;;24.64;57.46;100776.44;2086989;28;45486;-58
2023/06/21 00:58:35;;;;;;;;;4.00;3.50;;;;;24.63;57.29;100781.00;2087740;28;46049;-55
2023/06/21 00:59:36;;;;;;;;;4.00;4.00;;;;;24.62;57.06;100778.41;2086747;28;45490;-57
2023/06/21 01:00:37;;;;;;;;;4.00;3.00;;;;;24.61;57.38;100773.97;2086527;28;45500;-56
2023/06/21 01:01:37;;;;;;;;;5.00;3.00;;;;;24.61;57.23;100773.97;2086534;28;45751;-56
2023/06/21 01:02:38;;;;;;;;;5.00;4.67;;;;;24.60;57.78;100783.09;2087081;28;45518;-57
2023/06/21 01:03:38;;;;;;;;;6.00;6.00;;;;;24.58;57.38;100785.06;2087068;28;45859;-55
2023/06/21 01:04:40;;;;;;;;;5.00;3.67;;;;;24.58;57.23;100782.34;2086393;28;49051;-56
2023/06/21 01:05:41;;;;;;;;;5.00;5.00;;;;;24.58;57.52;100779.66;2086940;28;45677;-58
2023/06/21 01:06:53;;;;;;;;;6.00;5.00;;;;;24.58;57.56;100782.34;2080677;28;45796;-57
2023/06/21 01:08:02;;;;;;;;;4.25;4.25;;;;;24.56;57.26;100787.06;2087249;28;46133;-56
2023/06/21 01:09:13;;;;;;;;;5.25;5.25;;;;;24.55;57.49;100791.63;2088305;28;45689;-57
2023/06/21 01:10:28;;;;;;;;;4.00;4.00;;;;;24.53;57.31;100792.72;2088380;28;46529;-55
2023/06/21 01:11:43;;;;;;;;;5.00;4.00;;;;;24.53;57.51;100796.31;2088638;28;45453;-56
2023/06/21 01:13:06;;;;;;;;;5.75;4.75;;;;;24.53;57.67;100795.44;2086170;28;45588;-55
2023/06/21 01:14:22;;;;;;;;;4.75;4.00;;;;;24.51;57.95;100797.38;2088592;28;45379;-57
2023/06/21 01:15:26;;;;;;;;;7.00;5.75;;;;;24.51;57.92;100805.53;2089353;28;45937;-56
2023/06/21 01:16:37;;;;;;;;;5.00;5.00;;;;;24.50;57.69;100801.09;2080316;28;45786;-57
2023/06/21 01:17:40;;;;;;;;;4.25;4.25;;;;;24.50;57.38;100803.78;2085677;28;46391;-55
2023/06/21 01:18:45;;;;;;;;;3.00;3.00;;;;;24.49;57.58;100797.50;2088916;28;45710;-57
2023/06/21 01:19:51;;;;;;;;;5.00;5.00;;;;;24.49;57.59;100807.50;2088490;28;46551;-56
2023/06/21 01:20:54;;;;;;;;;5.00;5.00;;;;;24.48;57.97;100798.50;2088786;28;46098;-57
2023/06/21 01:21:57;;;;;;;;;6.60;6.60;;;;;24.48;57.59;100808.47;2087691;28;47466;-56
2023/06/21 01:23:17;;;;;;;;;4.00;4.00;;;;;24.47;57.91;100809.47;2087898;28;46063;-55
2023/06/21 01:24:20;;;;;;;;;4.25;4.25;;;;;24.46;57.79;100814.03;2086614;28;45203;-55
2023/06/21 01:26:09;;;;;;;;;4.00;4.00;;;;;24.45;57.99;100811.44;2088738;28;45471;-58
2023/06/21 01:27:27;;;;;;;;;5.50;5.50;;;;;24.44;58.05;100816.00;2078027;28;46061;-56
2023/06/21 01:28:59;;;;;;;;;4.00;4.00;;;;;24.44;57.88;100813.28;2081840;28;46335;-56
2023/06/21 01:30:02;;;;;;;;;4.50;4.50;;;;;24.43;57.92;100811.56;2050816;28;45610;-55
2023/06/21 01:31:04;;;;;;;;;6.00;5.00;;;;;24.44;57.89;100817.84;2007896;28;1131315;-57
2023/06/21 01:32:08;;;;;;;;;4.75;4.75;;;;;24.43;58.21;100814.28;2038977;28;45515;-56
2023/06/21 01:33:09;;;;;;;;;4.75;4.75;;;;;24.43;58.50;100810.72;2039843;28;45952;-56
2023/06/21 01:34:12;;;;;;;;;4.50;4.50;;;;;24.42;58.59;100811.69;2046922;28;46863;-56
2023/06/21 01:35:12;;;;;;;;;5.00;4.25;;;;;24.42;58.02;100811.69;2047082;28;46465;-57
2023/06/21 01:36:13;;;;;;;;;4.00;4.00;;;;;24.42;58.16;100815.25;2047135;28;46171;-56
2023/06/21 01:37:14;;;;;;;;;3.00;3.00;;;;;24.43;58.23;100810.72;2047203;28;45477;-55
2023/06/21 01:38:14;;;;;;;;;6.00;3.00;;;;;24.42;57.76;100814.41;2046610;28;46740;-56
2023/06/21 01:39:15;;;;;;;;;5.33;4.00;;;;;24.41;58.12;100824.41;2047774;28;45545;-57
2023/06/21 01:40:15;;;;;;;;;2.33;2.33;;;;;24.41;58.52;100818.97;2047170;28;46275;-58
2023/06/21 01:41:16;;;;;;;;;3.00;3.00;;;;;24.40;58.24;100819.09;2047245;28;45764;-57
2023/06/21 01:42:16;;;;;;;;;4.67;3.33;;;;;24.41;58.42;100826.25;2046959;28;46005;-55
2023/06/21 01:43:17;;;;;;;;;3.00;3.00;;;;;24.41;57.92;100829.81;2047117;28;45108;-56
2023/06/21 01:44:18;;;;;;;;;4.50;4.50;;;;;24.40;58.12;100821.81;2047163;28;46686;-56
2023/06/21 01:45:23;;;;;;;;;5.33;4.00;;;;;24.40;58.02;100824.50;2047053;28;46262;-56
2023/06/21 01:46:25;;;;;;;;;2.00;2.00;;;;;24.40;58.35;100824.50;2047362;28;45817;-56
2023/06/21 01:47:26;;;;;;;;;4.00;4.00;;;;;24.38;58.06;100821.03;2047587;28;45784;-56
2023/06/21 01:48:26;;;;;;;;;6.00;4.67;;;;;24.38;57.92;100821.91;2038843;28;46321;-58
2023/06/21 01:49:29;;;;;;;;;4.00;4.00;;;;;24.38;58.25;100829.16;2039709;28;45605;-57
2023/06/21 01:50:31;;;;;;;;;7.75;7.25;;;;;24.38;58.07;100829.16;2047281;28;45999;-56
2023/06/21 01:51:35;;;;;;;;;3.00;3.00;;;;;24.37;58.14;100831.00;2039315;28;46365;-57
2023/06/21 01:52:36;;;;;;;;;3.50;3.50;;;;;24.36;58.33;100832.00;2039450;28;45326;-56
2023/06/21 01:53:37;;;;;;;;;4.75;4.50;;;;;24.36;58.51;100837.44;2047526;28;46546;-57
2023/06/21 01:54:41;;;;;;;;;1.75;1.25;;;;;24.34;58.51;100834.84;2047677;28;45676;-56
2023/06/21 01:55:48;;;;;;;;;4.75;3.50;;;;;24.34;58.49;100842.97;2047182;28;46532;-56
2023/06/21 01:56:51;;;;;;;;;2.75;2.75;;;;;24.33;58.29;100840.38;2047131;28;46876;-57
2023/06/21 01:57:52;;;;;;;;;6.00;5.00;;;;;24.32;58.02;100835.94;2046843;28;46256;-57
2023/06/21 01:58:53;;;;;;;;;5.33;3.33;;;;;24.32;58.41;100842.22;2046949;28;46838;-56
2023/06/21 01:59:54;;;;;;;;;4.33;4.33;;;;;24.30;58.60;100841.50;2047380;28;46045;-55
2023/06/21 02:00:56;;;;;;;;;6.33;5.67;;;;;24.31;58.92;100845.06;2045892;28;46854;-57
2023/06/21 02:01:59;;;;;;;;;4.50;3.75;;;;;24.28;58.12;100848.84;2047728;28;46204;-57
2023/06/21 02:03:06;;;;;;;;;4.50;3.75;;;;;24.27;58.63;100849.84;2047006;28;46130;-56
2023/06/21 02:04:08;;;;;;;;;3.25;3.25;;;;;24.27;58.78;100841.69;2046898;28;46214;-56
2023/06/21 02:05:09;;;;;;;;;4.00;4.00;;;;;24.26;58.66;100844.50;2047127;28;46502;-55
2023/06/21 02:06:11;;;;;;;;;5.00;4.00;;;;;24.25;58.23;100850.91;2054679;28;45762;-56
2023/06/21 02:07:14;;;;;;;;;6.75;4.00;;;;;24.25;58.57;100849.06;2055072;28;46849;-55
2023/06/21 02:08:17;;;;;;;;;4.50;4.50;;;;;24.24;58.32;100852.75;2086468;28;45180;-56
2023/06/21 02:09:19;;;;;;;;;5.25;5.25;;;;;24.24;58.43;100850.06;2088322;28;45297;-56
2023/06/21 02:10:21;;;;;;;;;5.00;5.00;;;;;24.24;58.61;100857.31;2088997;28;45316;-57
2023/06/21 02:11:22;;;;;;;;;3.00;3.00;;;;;24.23;58.44;100861.88;2088840;28;46032;-54
2023/06/21 02:12:22;;;;;;;;;4.75;4.00;;;;;24.22;58.76;100862.88;2088708;28;45218;-54
2023/06/21 02:13:26;;;;;;;;;8.00;4.67;;;;;24.21;58.93;100865.69;2087957;28;47942;-57
2023/06/21 02:14:26;;;;;;;;;3.50;3.50;;;;;24.18;58.69;100866.81;2088100;28;46116;-58
2023/06/21 02:15:26;;;;;;;;;2.00;2.00;;;;;24.17;58.48;100862.38;2086201;28;45393;-56
2023/06/21 02:16:29;;;;;;;;;4.33;4.33;;;;;24.17;59.22;100861.50;2088708;28;45843;-56
2023/06/21 02:17:29;;;;;;;;;4.00;4.00;;;;;24.17;58.58;100864.22;2088748;28;45760;-56
2023/06/21 02:18:30;;;;;;;;;4.00;4.00;;;;;24.17;58.58;100862.38;2087570;28;45565;-56
2023/06/21 02:19:30;;;;;;;;;6.00;6.00;;;;;24.16;59.01;100859.78;2096062;28;46101;-57
2023/06/21 02:20:31;;;;;;;;;5.00;4.00;;;;;24.15;59.19;100861.63;2098224;28;47237;-56
2023/06/21 02:21:31;;;;;;;;;5.33;4.00;;;;;24.14;59.25;100854.47;2088883;28;45774;-57
2023/06/21 02:22:31;;;;;;;;;4.00;4.00;;;;;24.13;58.85;100850.00;2088013;28;46024;-56
2023/06/21 02:23:32;;;;;;;;;3.00;3.00;;;;;24.14;59.09;100856.28;2088368;28;46688;-57
2023/06/21 02:24:32;;;;;;;;;5.67;5.67;;;;;24.14;59.34;100859.00;2087885;28;46831;-57
2023/06/21 02:25:35;;;;;;;;;6.00;6.00;;;;;24.13;59.19;100852.72;2088751;28;46100;-58
2023/06/21 02:26:35;;;;;;;;;2.00;2.00;;;;;24.10;58.92;100850.25;2088913;28;46407;-55
2023/06/21 02:27:36;;;;;;;;;3.67;3.67;;;;;24.09;59.13;100848.50;2089154;28;47216;-55
2023/06/21 02:28:36;;;;;;;;;5.00;5.00;;;;;24.08;59.14;100855.78;2086987;28;47447;-56
2023/06/21 02:29:36;;;;;;;;;4.33;4.33;;;;;24.07;59.16;100845.06;2088891;28;45721;-56
2023/06/21 02:30:37;;;;;;;;;2.00;2.00;;;;;24.05;59.50;100850.59;2088262;28;45907;-55
2023/06/21 02:31:37;;;;;;;;;4.00;4.00;;;;;24.05;59.33;100847.03;2088380;28;46709;-58
2023/06/21 02:32:38;;;;;;;;;6.00;4.00;;;;;24.05;59.69;100844.31;2096133;28;46601;-55
2023/06/21 02:33:42;;;;;;;;;5.00;5.00;;;;;24.04;59.36;100850.72;2096456;28;45564;-56
2023/06/21 02:34:42;;;;;;;;;4.75;4.75;;;;;24.03;59.48;100854.41;2084731;28;46753;-57
2023/06/21 02:35:43;;;;;;;;;5.00;5.00;;;;;24.02;59.68;100850.84;2088604;28;46263;-57
2023/06/21 02:36:52;;;;;;;;;3.00;3.00;;;;;24.01;59.38;100843.69;2081939;28;45977;-57
2023/06/21 02:37:53;;;;;;;;;3.75;3.75;;;;;23.98;59.92;100846.63;2085467;28;46924;-56
2023/06/21 02:38:53;;;;;;;;;5.33;4.33;;;;;23.97;59.66;100846.72;2086715;28;45128;-55
2023/06/21 02:39:57;;;;;;;;;6.00;5.00;;;;;23.95;59.73;100844.16;2088651;28;44961;-56
2023/06/21 02:40:57;;;;;;;;;4.00;4.00;;;;;23.94;59.77;100853.25;2085031;28;45779;-56
2023/06/21 02:41:57;;;;;;;;;5.00;5.00;;;;;23.94;59.74;100844.25;2088681;28;45866;-55
2023/06/21 02:42:58;;;;;;;;;3.33;3.00;;;;;23.94;59.64;100847.84;2086922;28;45541;-57
2023/06/21 02:43:58;;;;;;;;;4.67;4.67;;;;;23.93;59.75;100845.25;2079863;28;45704;-58
2023/06/21 02:44:58;;;;;;;;;3.00;3.00;;;;;23.92;60.08;100847.09;2079732;28;46727;-56
2023/06/21 02:46:00;;;;;;;;;4.00;4.00;;;;;23.90;59.95;100849.06;2086961;28;46968;-56
2023/06/21 02:47:01;;;;;;;;;4.75;3.50;;;;;23.90;60.03;100853.63;2088703;28;46389;-57
2023/06/21 02:48:01;;;;;;;;;4.00;4.00;;;;;23.90;59.80;100854.47;2088372;28;45505;-56
2023/06/21 02:49:02;;;;;;;;;2.33;2.33;;;;;23.89;59.99;100854.59;2088562;28;45612;-56
2023/06/21 02:50:03;;;;;;;;;5.00;3.00;;;;;23.89;60.31;100855.47;2088770;28;46188;-58
2023/06/21 02:51:04;;;;;;;;;5.25;5.25;;;;;23.90;60.10;100851.78;2087244;28;47138;-55
2023/06/21 02:52:04;;;;;;;;;5.67;5.00;;;;;23.90;59.94;100854.47;2088765;28;45808;-54
2023/06/21 02:53:04;;;;;;;;;4.00;4.00;;;;;23.89;60.29;100850.03;2088261;28;45526;-57
2023/06/21 02:54:05;;;;;;;;;4.33;4.33;;;;;23.89;59.92;100846.47;2088340;28;46089;-56
2023/06/21 02:55:07;;;;;;;;;4.00;4.00;;;;;23.89;60.47;100852.75;2088618;28;46402;-55
2023/06/21 02:56:07;;;;;;;;;1.50;1.50;;;;;23.89;59.88;100854.59;2088592;28;47669;-55
2023/06/21 02:57:08;;;;;;;;;4.00;4.00;;;;;23.88;59.97;100859.13;2087877;28;45217;-55
2023/06/21 02:58:08;;;;;;;;;3.67;3.67;;;;;23.87;60.28;100859.25;2088109;28;46090;-56
2023/06/21 02:59:09;;;;;;;;;3.00;3.00;;;;;23.87;60.05;100859.25;2088317;28;46438;-57
2023/06/21 03:00:23;;;;;;;;;4.50;4.00;;;;;23.86;60.33;100858.38;2087631;28;45771;-55
2023/06/21 03:01:23;;;;;;;;;4.25;4.25;;;;;23.83;60.38;100857.75;2081417;28;45432;-55
2023/06/21 03:02:24;;;;;;;;;7.00;4.67;;;;;23.82;60.58;100856.88;2088127;28;45618;-55
2023/06/21 03:03:24;;;;;;;;;4.33;4.33;;;;;23.82;60.68;100856.88;2085218;28;46511;-56
2023/06/21 03:04:24;;;;;;;;;4.33;4.33;;;;;23.80;60.48;100855.28;2086416;28;46395;-57
2023/06/21 03:05:29;;;;;;;;;5.00;4.33;;;;;23.79;60.54;100857.13;2086604;28;46739;-57
2023/06/21 03:06:29;;;;;;;;;4.75;4.75;;;;;23.78;60.96;100860.81;2084207;28;46633;-57
2023/06/21 03:07:30;;;;;;;;;4.00;4.00;;;;;23.76;60.57;100863.66;2088404;28;45555;-55
2023/06/21 03:08:31;;;;;;;;;3.00;3.00;;;;;23.76;60.67;100851.94;2088297;28;48198;-56
2023/06/21 03:09:32;;;;;;;;;5.25;5.00;;;;;23.76;60.65;100857.38;2088814;28;46013;-57
2023/06/21 03:10:33;;;;;;;;;4.67;4.00;;;;;23.76;60.53;100863.66;2088553;28;45617;-58
2023/06/21 03:11:33;;;;;;;;;4.33;4.00;;;;;23.76;60.44;100858.22;2088815;28;45548;-58
2023/06/21 03:12:33;;;;;;;;;5.00;5.00;;;;;23.76;60.61;100862.78;2088819;28;45112;-56
2023/06/21 03:13:37;;;;;;;;;4.33;4.33;;;;;23.76;60.53;100869.06;2087961;28;45332;-58
2023/06/21 03:14:37;;;;;;;;;5.00;4.00;;;;;23.76;60.54;100862.78;2088342;28;46712;-55
2023/06/21 03:15:38;;;;;;;;;4.00;4.00;;;;;23.76;60.58;100862.78;2088406;28;45245;-58
2023/06/21 03:16:40;;;;;;;;;6.67;6.00;;;;;23.76;60.67;100868.19;2088993;28;45921;-58
2023/06/21 03:17:40;;;;;;;;;3.00;3.00;;;;;23.76;60.71;100869.06;2088142;28;46438;-57
2023/06/21 03:18:41;;;;;;;;;3.67;3.33;;;;;23.77;60.77;100868.09;2088434;28;45496;-56
2023/06/21 03:19:41;;;;;;;;;4.00;4.00;;;;;23.77;60.77;100861.78;2088340;28;45854;-57
2023/06/21 03:20:42;;;;;;;;;4.00;4.00;;;;;23.78;60.64;100868.94;2087993;28;45419;-56
2023/06/21 03:21:43;;;;;;;;;7.00;5.50;;;;;23.78;60.38;100867.09;2089156;28;45601;-57
2023/06/21 03:22:44;;;;;;;;;4.33;4.33;;;;;23.78;60.80;100868.94;2087578;28;46493;-57
2023/06/21 03:23:45;;;;;;;;;4.50;3.75;;;;;23.78;60.71;100867.09;2087560;28;45234;-55
2023/06/21 03:24:45;;;;;;;;;3.00;3.00;;;;;23.77;60.52;100862.66;2088452;28;46161;-56
2023/06/21 03:25:46;;;;;;;;;3.33;3.33;;;;;23.78;61.02;100866.22;2088403;28;46115;-56
2023/06/21 03:26:46;;;;;;;;;6.00;6.00;;;;;23.76;60.86;100866.34;2088287;28;46242;-56
2023/06/21 03:27:47;;;;;;;;;5.00;4.00;;;;;23.75;60.81;100864.59;2088023;28;46418;-56
2023/06/21 03:28:47;;;;;;;;;5.50;5.50;;;;;23.72;60.84;100864.81;2086595;28;45669;-56
2023/06/21 03:29:48;;;;;;;;;5.00;5.00;;;;;23.70;60.98;100871.34;2087794;28;47320;-56
2023/06/21 03:30:48;;;;;;;;;4.00;4.00;;;;;23.69;60.70;100872.34;2088212;28;45871;-58
2023/06/21 03:31:48;;;;;;;;;6.00;6.00;;;;;23.67;61.13;100872.44;2088175;28;46671;-56
2023/06/21 03:32:49;;;;;;;;;4.00;4.00;;;;;23.66;61.06;100873.44;2088044;28;45208;-55
2023/06/21 03:33:49;;;;;;;;;3.67;3.67;;;;;23.67;61.03;100875.16;2104451;28;47288;-57
2023/06/21 03:34:49;;;;;;;;;6.67;4.33;;;;;23.68;60.96;100868.75;2104672;28;45173;-57
2023/06/21 03:35:50;;;;;;;;;4.67;4.33;;;;;23.68;60.98;100870.59;2088366;28;46396;-56
2023/06/21 03:36:53;;;;;;;;;4.33;4.00;;;;;23.66;61.23;100868.00;2080317;28;46388;-58
2023/06/21 03:37:53;;;;;;;;;5.00;3.75;;;;;23.64;61.46;100869.97;2080942;28;46191;-57
2023/06/21 03:38:54;;;;;;;;;5.00;5.00;;;;;23.63;61.06;100879.09;2087506;28;46233;-58
2023/06/21 03:39:54;;;;;;;;;3.00;3.00;;;;;23.62;61.36;100874.59;2088458;28;45659;-58
2023/06/21 03:40:54;;;;;;;;;5.33;5.33;;;;;23.63;61.42;100873.66;2088161;28;46357;-57
2023/06/21 03:41:55;;;;;;;;;6.67;5.00;;;;;23.65;61.48;100882.53;2088720;28;45808;-58
2023/06/21 03:42:55;;;;;;;;;5.00;5.00;;;;;23.63;61.63;100881.78;2088072;28;45423;-57
2023/06/21 03:43:55;;;;;;;;;4.67;4.67;;;;;23.62;61.49;100884.59;2088348;28;45603;-58
2023/06/21 03:44:56;;;;;;;;;6.00;4.00;;;;;23.61;61.24;100882.84;2087858;28;46561;-58
2023/06/21 03:45:57;;;;;;;;;3.67;3.67;;;;;23.61;61.54;100885.56;2087401;28;45982;-56
2023/06/21 03:46:58;;;;;;;;;5.25;5.25;;;;;23.64;61.47;100891.66;2088392;28;45966;-58
2023/06/21 03:48:02;;;;;;;;;4.75;3.25;;;;;23.65;61.39;100890.66;2088440;28;45639;-55
2023/06/21 03:49:04;;;;;;;;;5.00;5.00;;;;;23.64;61.66;100899.78;2087768;28;46689;-57
2023/06/21 03:50:05;;;;;;;;;3.75;3.75;;;;;23.63;61.31;100895.34;2088715;28;45515;-58
2023/06/21 03:51:05;;;;;;;;;4.00;4.00;;;;;23.63;61.67;100897.16;2088095;28;46428;-56
2023/06/21 03:52:06;;;;;;;;;6.00;4.33;;;;;23.61;61.25;100902.69;2088173;28;46530;-56
2023/06/21 03:53:06;;;;;;;;;5.00;5.00;;;;;23.60;61.54;100908.22;2103547;28;45853;-57
2023/06/21 03:54:06;;;;;;;;;2.00;0.67;;;;;23.58;61.45;100902.91;2103692;28;45852;-57
2023/06/21 03:55:08;;;;;;;;;6.67;5.00;;;;;23.56;61.79;100909.41;2104436;28;45412;-58
2023/06/21 03:56:08;;;;;;;;;5.75;5.75;;;;;23.56;61.83;100914.81;2104343;28;46201;-58
2023/06/21 03:57:09;;;;;;;;;6.33;5.00;;;;;23.53;61.72;100915.91;2101813;28;45579;-57
2023/06/21 03:58:11;;;;;;;;;5.67;5.00;;;;;23.53;61.54;100925.88;2103769;28;45550;-58
2023/06/21 03:59:11;;;;;;;;;5.75;5.00;;;;;23.51;61.90;100917.88;2103663;28;46801;-58
2023/06/21 04:00:13;;;;;;;;;5.00;5.00;;;;;23.50;61.94;100921.53;2103441;28;46596;-57
2023/06/21 04:01:15;;;;;;;;;5.00;3.00;;;;;23.49;61.85;100920.66;2095618;28;46318;-57
2023/06/21 04:02:15;;;;;;;;;6.00;5.50;;;;;23.51;62.25;100925.13;2095695;28;45697;-58
2023/06/21 04:03:16;;;;;;;;;5.00;5.00;;;;;23.49;62.19;100928.78;2095602;28;45804;-57
2023/06/21 04:04:16;;;;;;;;;5.67;5.67;;;;;23.49;61.99;100927.91;2104070;28;45968;-57
2023/06/21 04:05:16;;;;;;;;;5.00;5.00;;;;;23.49;61.92;100926.09;2102423;28;46289;-56
2023/06/21 04:06:17;;;;;;;;;4.00;3.00;;;;;23.51;62.12;100935.97;2100333;28;46102;-57
2023/06/21 04:07:19;;;;;;;;;6.00;6.00;;;;;23.52;61.98;100925.03;2095369;28;46372;-56
2023/06/21 04:08:19;;;;;;;;;4.00;3.75;;;;;23.53;62.23;100925.88;2095074;28;46620;-57
2023/06/21 04:09:19;;;;;;;;;5.33;5.33;;;;;23.55;61.68;100929.34;2095489;28;46442;-57
2023/06/21 04:10:20;;;;;;;;;6.00;6.00;;;;;23.56;62.29;100928.38;2095323;28;45453;-58
2023/06/21 04:11:20;;;;;;;;;4.67;4.67;;;;;23.57;61.87;100930.94;2095229;28;45260;-58
2023/06/21 04:12:21;;;;;;;;;5.00;5.00;;;;;23.59;61.93;100931.75;2095234;28;46616;-56
2023/06/21 04:13:21;;;;;;;;;4.00;4.00;;;;;23.60;61.88;100938.88;2095591;28;45820;-58
2023/06/21 04:14:22;;;;;;;;;4.00;4.00;;;;;23.62;61.80;100936.06;2095234;28;46035;-57
2023/06/21 04:15:22;;;;;;;;;4.67;3.00;;;;;23.64;61.95;100934.13;2102055;28;46495;-56
2023/06/21 04:16:22;;;;;;;;;7.25;4.00;;;;;23.65;61.71;100936.72;2104019;28;45084;-57
2023/06/21 04:17:23;;;;;;;;;4.00;4.00;;;;;23.66;61.91;100940.31;2095075;28;45884;-56
2023/06/21 04:18:23;;;;;;;;;6.00;4.67;;;;;23.66;61.84;100948.44;2095641;28;45481;-57
2023/06/21 04:19:23;;;;;;;;;5.00;5.00;;;;;23.65;62.09;100947.56;2103442;28;46686;-56
2023/06/21 04:20:24;;;;;;;;;4.00;4.00;;;;;23.66;61.87;100951.13;2103420;28;46481;-58
2023/06/21 04:21:24;;;;;;;;;4.33;4.33;;;;;23.64;61.88;100956.69;2104181;28;45557;-59
2023/06/21 04:22:25;;;;;;;;;4.33;4.33;;;;;23.64;62.06;100953.97;2095449;28;46783;-59
2023/06/21 04:23:28;;;;;;;;;6.33;6.33;;;;;23.63;62.01;100954.94;2088457;28;46266;-59
2023/06/21 04:24:28;;;;;;;;;5.50;5.50;;;;;23.64;61.88;100953.97;2098699;28;45154;-59
2023/06/21 04:25:28;;;;;;;;;6.00;5.00;;;;;23.63;61.81;100957.66;2087894;28;45698;-58
2023/06/21 04:26:29;;;;;;;;;7.00;6.00;;;;;23.64;62.01;100962.09;2087767;28;46417;-58
2023/06/21 04:27:29;;;;;;;;;6.00;4.33;;;;;23.65;61.84;100960.25;2087321;28;46049;-58
2023/06/21 04:28:29;;;;;;;;;6.33;5.33;;;;;23.65;62.06;100960.25;2087221;28;48200;-58
2023/06/21 04:29:30;;;;;;;;;5.33;5.00;;;;;23.64;61.98;100959.38;2087899;28;45514;-57
2023/06/21 04:30:33;;;;;;;;;6.33;4.00;;;;;23.65;61.64;100963.81;2087977;28;45629;-57
2023/06/21 04:31:37;;;;;;;;;4.50;4.50;;;;;23.66;62.07;100964.69;2087696;28;46589;-58
2023/06/21 04:32:45;;;;;;;;;4.25;4.25;;;;;23.68;62.19;100965.44;2087633;28;46511;-58
2023/06/21 04:33:45;;;;;;;;;4.25;4.25;;;;;23.70;62.02;100969.75;2088392;28;45702;-57
2023/06/21 04:34:48;;;;;;;;;5.00;3.67;;;;;23.72;61.91;100969.66;2085951;28;45529;-57
2023/06/21 04:35:48;;;;;;;;;4.25;4.25;;;;;23.75;61.94;100964.00;2087502;28;45687;-58
2023/06/21 04:36:48;;;;;;;;;5.67;5.67;;;;;23.78;61.59;100964.66;2087017;28;47439;-56
2023/06/21 04:37:49;;;;;;;;;5.67;5.67;;;;;23.80;61.86;100969.09;2086120;28;46521;-56
2023/06/21 04:38:50;;;;;;;;;1.67;1.67;;;;;23.79;61.97;100970.94;2089082;28;45785;-57
2023/06/21 04:39:51;;;;;;;;;6.00;6.00;;;;;23.77;61.62;100971.06;2087651;28;45481;-58
2023/06/21 04:40:53;;;;;;;;;6.33;6.33;;;;;23.78;61.68;100980.94;2087878;28;45850;-58
2023/06/21 04:41:54;;;;;;;;;4.25;4.25;;;;;23.75;62.06;100980.25;2086035;28;46618;-58
2023/06/21 04:42:54;;;;;;;;;4.00;4.00;;;;;23.71;61.79;100981.47;2088320;28;46346;-56
2023/06/21 04:43:55;;;;;;;;;4.33;4.33;;;;;23.67;62.43;100975.41;2088686;28;45973;-57
2023/06/21 04:44:58;;;;;;;;;6.33;6.33;;;;;23.66;62.21;100989.06;2087757;28;47274;-56
2023/06/21 04:45:59;;;;;;;;;4.00;4.00;;;;;23.64;62.14;100994.59;2088818;28;45470;-56
2023/06/21 04:47:02;;;;;;;;;3.00;3.00;;;;;23.65;62.33;101000.91;2088583;28;45712;-58
2023/06/21 04:48:04;;;;;;;;;1.50;1.50;;;;;23.66;62.19;101000.78;2088325;28;47072;-57